Time;durP1;ratioP1;P1;durP2;ratioP2;P2;SDS_P1;SDS_P2;PMS_P1;PMS_P2;Temp;Humidity;BMP_temperature;BMP_pressure;BME280_temperature;BME280_humidity;BME280_pressure;Samples;Min_cycle;Max_cycle;Signal;HPM_P1;HPM_P2
2021/01/25 00:00:28;;;;;;;1.33;1.33;;;0.10;99.90;;;;;;5030436;28;20284;-73
2021/01/25 00:02:54;;;;;;;0.57;0.57;;;0.00;99.90;;;;;;5028787;28;20170;-73
2021/01/25 00:05:20;;;;;;;0.70;0.70;;;0.00;99.90;;;;;;5030380;28;20651;-73
2021/01/25 00:07:46;;;;;;;0.50;0.50;;;0.00;99.90;;;;;;5030269;28;20206;-73
2021/01/25 00:10:12;;;;;;;0.15;0.15;;;0.00;99.90;;;;;;5030113;28;20304;-73
2021/01/25 00:12:38;;;;;;;0.20;0.20;;;-0.10;99.90;;;;;;5030228;28;20178;-74
2021/01/25 00:15:06;;;;;;;0.10;0.10;;;-0.20;99.90;;;;;;5029804;28;20166;-73
2021/01/25 00:17:32;;;;;;;1.50;0.95;;;-0.20;99.90;;;;;;5030013;28;20193;-73
2021/01/25 00:19:58;;;;;;;1.33;1.33;;;-0.20;99.90;;;;;;5028915;28;20208;-73
2021/01/25 00:22:25;;;;;;;0.50;0.50;;;-0.30;99.90;;;;;;5029971;28;20257;-73
2021/01/25 00:24:52;;;;;;;0.10;0.10;;;-0.20;99.90;;;;;;5029840;28;20165;-73
2021/01/25 00:27:17;;;;;;;2.13;1.23;;;-0.20;99.90;;;;;;5028696;28;20554;-73
2021/01/25 00:29:43;;;;;;;1.42;1.33;;;-0.20;99.90;;;;;;5027636;28;20824;-73
2021/01/25 00:32:09;;;;;;;0.45;0.45;;;-0.20;99.90;;;;;;5027309;28;20181;-73
2021/01/25 00:34:37;;;;;;;0.70;0.70;;;0.00;99.90;;;;;;5030467;28;20193;-73
2021/01/25 00:37:03;;;;;;;3.20;1.27;;;0.00;99.90;;;;;;5030346;28;20163;-74
2021/01/25 00:39:29;;;;;;;0.40;0.40;;;-0.10;99.90;;;;;;5029123;28;20800;-74
2021/01/25 00:41:55;;;;;;;0.30;0.30;;;-0.10;99.90;;;;;;5030265;28;20650;-73
2021/01/25 00:44:21;;;;;;;0.55;0.55;;;0.00;99.90;;;;;;5029916;28;20225;-73
2021/01/25 00:46:47;;;;;;;0.20;0.20;;;0.20;99.90;;;;;;5030243;28;20222;-73
2021/01/25 00:49:13;;;;;;;0.25;0.25;;;0.40;99.90;;;;;;5028784;28;20204;-73
2021/01/25 00:51:38;;;;;;;1.27;1.27;;;0.50;99.90;;;;;;5028744;28;20187;-73
2021/01/25 00:54:04;;;;;;;1.08;1.08;;;0.50;99.90;;;;;;5030135;28;20615;-73
2021/01/25 00:56:30;;;;;;;0.73;0.73;;;0.60;99.90;;;;;;5030067;28;20166;-73
2021/01/25 00:58:56;;;;;;;0.80;0.65;;;0.60;99.90;;;;;;5029989;28;20296;-73
2021/01/25 01:01:22;;;;;;;0.63;0.63;;;0.60;99.90;;;;;;5029882;28;20189;-73
2021/01/25 01:03:48;;;;;;;0.63;0.63;;;0.60;99.90;;;;;;5029723;28;20213;-73
2021/01/25 01:06:14;;;;;;;0.28;0.28;;;0.70;99.90;;;;;;5041637;28;20213;-73
2021/01/25 01:08:40;;;;;;;0.30;0.30;;;0.80;99.90;;;;;;5010097;28;20194;-73
2021/01/25 01:11:06;;;;;;;0.63;0.63;;;0.70;99.90;;;;;;5021832;28;20204;-73
2021/01/25 01:13:32;;;;;;;0.20;0.20;;;0.70;99.90;;;;;;5028374;28;20265;-74
2021/01/25 01:15:57;;;;;;;2.55;2.40;;;0.70;99.90;;;;;;5028302;28;20264;-74
2021/01/25 01:18:23;;;;;;;0.80;0.80;;;0.70;99.90;;;;;;5029580;28;20194;-73
2021/01/25 01:20:49;;;;;;;0.73;0.73;;;0.50;99.90;;;;;;5029533;28;20189;-74
2021/01/25 01:23:15;;;;;;;1.17;1.17;;;0.40;99.90;;;;;;5029484;28;20163;-73
2021/01/25 01:25:42;;;;;;;0.60;0.60;;;0.50;99.90;;;;;;5028725;28;20158;-73
2021/01/25 01:28:09;;;;;;;1.05;1.05;;;0.40;99.90;;;;;;5028040;28;20167;-73
2021/01/25 01:30:34;;;;;;;1.33;1.33;;;0.30;99.90;;;;;;5029080;28;20165;-73
2021/01/25 01:33:00;;;;;;;2.88;2.78;;;0.40;99.90;;;;;;5027903;28;20171;-72
2021/01/25 01:35:26;;;;;;;0.77;0.77;;;0.40;99.90;;;;;;5029146;28;20533;-73
2021/01/25 01:37:52;;;;;;;0.73;0.73;;;0.40;99.90;;;;;;5029316;28;20166;-72
2021/01/25 01:40:18;;;;;;;0.30;0.30;;;0.50;99.90;;;;;;5029199;28;20201;-72
2021/01/25 01:42:44;;;;;;;0.60;0.60;;;0.40;99.90;;;;;;5028940;28;20242;-74
2021/01/25 01:45:11;;;;;;;0.45;0.45;;;0.40;99.90;;;;;;5027843;28;20174;-73
2021/01/25 01:47:41;;;;;;;0.20;0.20;;;0.40;99.90;;;;;;5029183;28;20162;-74
2021/01/25 01:50:11;;;;;;;0.52;0.52;;;0.30;99.90;;;;;;5027725;28;20200;-74
2021/01/25 01:52:38;;;;;;;0.10;0.10;;;0.20;99.90;;;;;;5029186;28;20177;-74
2021/01/25 01:55:04;;;;;;;0.43;0.43;;;0.10;99.90;;;;;;5027665;28;20182;-74
2021/01/25 01:57:34;;;;;;;1.08;1.08;;;0.10;99.90;;;;;;5028956;28;20158;-74
2021/01/25 02:00:03;;;;;;;0.25;0.25;;;0.10;99.90;;;;;;5028767;28;20194;-74
2021/01/25 02:02:29;;;;;;;0.20;0.20;;;0.00;99.90;;;;;;5028892;28;20289;-75
2021/01/25 02:04:55;;;;;;;0.10;0.10;;;-0.10;99.90;;;;;;5028890;28;20174;-75
2021/01/25 02:07:22;;;;;;;1.92;1.83;;;-0.10;99.90;;;;;;5028680;28;20174;-75
2021/01/25 02:09:49;;;;;;;3.40;1.75;;;-0.20;99.90;;;;;;5028617;28;20258;-74
2021/01/25 02:12:19;;;;;;;0.63;0.63;;;-0.20;99.90;;;;;;5027332;28;20201;-74
2021/01/25 02:14:46;;;;;;;1.60;1.50;;;-0.20;99.90;;;;;;5043384;28;20258;-74
2021/01/25 02:17:13;;;;;;;0.55;0.55;;;-0.20;99.90;;;;;;5028757;28;20226;-74
2021/01/25 02:20:02;;;;;;;0.90;0.90;;;-0.20;99.90;;;;;;5043832;28;20201;-74
2021/01/25 02:22:37;;;;;;;1.88;1.38;;;-0.30;99.90;;;;;;5043715;28;20212;-74
2021/01/25 02:25:11;;;;;;;0.57;0.57;;;-0.30;99.90;;;;;;5043554;28;20168;-74
2021/01/25 02:27:38;;;;;;;1.83;1.30;;;-0.30;99.90;;;;;;5043666;28;20462;-74
2021/01/25 02:30:06;;;;;;;0.63;0.63;;;-0.30;99.90;;;;;;5028087;28;20241;-74
2021/01/25 02:32:34;;;;;;;0.10;0.10;;;-0.50;99.90;;;;;;5043504;28;20180;-74
2021/01/25 02:35:02;;;;;;;0.35;0.35;;;-0.40;99.90;;;;;;5028341;28;20159;-73
2021/01/25 02:37:29;;;;;;;0.20;0.20;;;-0.40;99.90;;;;;;5027020;28;20197;-73
2021/01/25 02:39:57;;;;;;;0.22;0.22;;;-0.40;99.90;;;;;;5028253;28;20201;-74
2021/01/25 02:42:25;;;;;;;0.25;0.25;;;-0.30;99.90;;;;;;5028102;28;20298;-74
2021/01/25 02:44:51;;;;;;;1.15;1.05;;;-0.30;99.90;;;;;;5028316;28;20190;-74
2021/01/25 02:47:19;;;;;;;0.17;0.17;;;-0.40;99.90;;;;;;5028342;28;20184;-73
2021/01/25 02:49:45;;;;;;;2.05;1.95;;;-0.40;99.90;;;;;;5028071;28;20266;-74
2021/01/25 02:52:14;;;;;;;0.25;0.25;;;-0.30;99.90;;;;;;5043425;28;20631;-74
2021/01/25 02:54:41;;;;;;;0.93;0.93;;;-0.30;99.90;;;;;;5028083;28;20162;-74
2021/01/25 02:57:12;;;;;;;0.43;0.43;;;-0.40;99.90;;;;;;5043361;28;20241;-74
2021/01/25 02:59:39;;;;;;;0.75;0.75;;;-0.50;99.90;;;;;;5028049;28;20200;-74
2021/01/25 03:02:06;;;;;;;0.20;0.20;;;-0.40;99.90;;;;;;5043354;28;20216;-74
2021/01/25 03:04:34;;;;;;;2.63;2.45;;;-0.30;99.90;;;;;;5028204;28;20182;-72
2021/01/25 03:07:01;;;;;;;0.40;0.40;;;-0.30;99.90;;;;;;5018550;28;20723;-73
2021/01/25 03:09:27;;;;;;;0.20;0.20;;;-0.20;99.90;;;;;;5007096;28;20205;-72
2021/01/25 03:11:55;;;;;;;1.38;1.38;;;-0.30;99.90;;;;;;5041448;28;20615;-72
2021/01/25 03:14:21;;;;;;;0.20;0.20;;;-0.40;99.90;;;;;;5028089;28;20170;-73
2021/01/25 03:16:47;;;;;;;0.93;0.90;;;-0.50;99.90;;;;;;5026447;28;20178;-73
2021/01/25 03:19:13;;;;;;;0.55;0.55;;;-0.70;99.90;;;;;;5026351;28;20205;-74
2021/01/25 03:21:49;;;;;;;0.60;0.60;;;-0.80;99.90;;;;;;5028068;28;20194;-73
2021/01/25 03:24:16;;;;;;;0.55;0.55;;;-0.70;99.90;;;;;;5026665;28;20224;-73
2021/01/25 03:26:42;;;;;;;0.60;0.60;;;-0.80;99.90;;;;;;5026367;28;20162;-73
2021/01/25 03:29:09;;;;;;;0.20;0.20;;;-0.80;99.90;;;;;;5026623;28;20232;-73
2021/01/25 03:31:35;;;;;;;0.10;0.10;;;-0.70;99.90;;;;;;5027607;28;20155;-73
2021/01/25 03:34:02;;;;;;;0.35;0.20;;;-0.80;99.90;;;;;;5026087;28;20576;-73
2021/01/25 03:36:29;;;;;;;1.80;1.70;;;-0.80;99.90;;;;;;5027165;28;20162;-72
2021/01/25 03:38:56;;;;;;;1.15;0.98;;;-0.60;99.90;;;;;;5027634;28;20272;-73
2021/01/25 03:41:22;;;;;;;0.20;0.20;;;-0.50;99.90;;;;;;5027621;28;20193;-72
2021/01/25 03:43:48;;;;;;;0.20;0.20;;;-0.50;99.90;;;;;;5027408;28;20217;-72
2021/01/25 03:46:14;;;;;;;0.13;0.13;;;-0.50;99.90;;;;;;5027518;28;20170;-72
2021/01/25 03:48:40;;;;;;;2.05;1.92;;;-0.70;99.90;;;;;;5028368;28;20194;-72
2021/01/25 03:51:06;;;;;;;1.77;1.67;;;-0.80;99.90;;;;;;5031262;28;20197;-72
2021/01/25 03:53:32;;;;;;;0.20;0.20;;;-1.00;99.90;;;;;;5031032;28;20201;-73
2021/01/25 03:55:59;;;;;;;0.68;0.68;;;-1.10;99.90;;;;;;5031013;28;20170;-74
2021/01/25 03:58:25;;;;;;;0.13;0.13;;;-1.00;99.90;;;;;;5030441;28;20197;-75
2021/01/25 04:00:51;;;;;;;1.58;1.48;;;-1.10;99.90;;;;;;5030613;28;20190;-74
2021/01/25 04:03:17;;;;;;;0.20;0.20;;;-1.10;99.90;;;;;;5029209;28;20205;-74
2021/01/25 04:05:43;;;;;;;0.28;0.28;;;-1.20;99.90;;;;;;5029037;28;20170;-71
2021/01/25 04:08:09;;;;;;;0.40;0.40;;;-1.20;99.90;;;;;;5020899;28;20663;-74
2021/01/25 04:10:35;;;;;;;0.13;0.13;;;-1.20;99.90;;;;;;5018690;28;20166;-74
2021/01/25 04:13:01;;;;;;;3.60;2.83;;;-1.30;99.90;;;;;;5045872;28;20595;-74
2021/01/25 04:15:27;;;;;;;0.22;0.22;;;-1.30;99.90;;;;;;5030540;28;20154;-74
2021/01/25 04:17:53;;;;;;;0.30;0.30;;;-1.20;99.90;;;;;;5030609;28;20190;-74
2021/01/25 04:20:19;;;;;;;0.80;0.80;;;-1.30;99.90;;;;;;5030269;28;20252;-73
2021/01/25 04:22:45;;;;;;;0.10;0.10;;;-1.40;99.90;;;;;;5045425;28;20217;-73
2021/01/25 04:25:11;;;;;;;0.10;0.10;;;-1.50;99.90;;;;;;5030586;28;20162;-73
2021/01/25 04:27:37;;;;;;;0.25;0.25;;;-1.60;99.90;;;;;;5045074;28;20170;-73
2021/01/25 04:30:10;;;;;;;0.10;0.10;;;-1.60;99.90;;;;;;5028787;28;20198;-74
2021/01/25 04:32:37;;;;;;;0.40;0.40;;;-1.50;99.90;;;;;;5030335;28;20658;-73
2021/01/25 04:35:06;;;;;;;0.28;0.28;;;-1.40;99.90;;;;;;5030345;28;20287;-73
2021/01/25 04:37:32;;;;;;;0.10;0.10;;;-1.40;99.90;;;;;;5030164;28;20189;-73
2021/01/25 04:39:58;;;;;;;1.55;1.05;;;-1.30;99.90;;;;;;5030046;28;20201;-73
2021/01/25 04:42:24;;;;;;;0.30;0.30;;;-1.20;99.90;;;;;;5029998;28;20221;-74
2021/01/25 04:44:51;;;;;;;0.32;0.32;;;-1.20;99.90;;;;;;5029757;28;20158;-74
2021/01/25 04:47:21;;;;;;;1.45;1.30;;;-1.30;99.90;;;;;;5030228;28;20162;-73
2021/01/25 04:49:50;;;;;;;0.35;0.35;;;-1.30;99.90;;;;;;5029926;28;20198;-72
2021/01/25 04:52:16;;;;;;;0.50;0.50;;;-1.40;99.90;;;;;;5029956;28;20169;-73
2021/01/25 04:54:45;;;;;;;2.30;2.20;;;-1.40;99.90;;;;;;5030055;28;20225;-73
2021/01/25 04:57:15;;;;;;;1.05;1.00;;;-1.40;99.90;;;;;;5029838;28;20166;-73
2021/01/25 04:59:44;;;;;;;0.15;0.15;;;-1.30;99.90;;;;;;5027373;28;20202;-73
2021/01/25 05:02:10;;;;;;;0.10;0.10;;;-1.20;99.90;;;;;;5044648;28;20214;-74
2021/01/25 05:04:37;;;;;;;0.80;0.80;;;-1.30;99.90;;;;;;5029538;28;20170;-74
2021/01/25 05:07:03;;;;;;;0.68;0.68;;;-1.40;99.90;;;;;;5029600;28;20177;-74
2021/01/25 05:09:29;;;;;;;0.20;0.20;;;-1.30;99.90;;;;;;5029453;28;20220;-74
2021/01/25 05:11:59;;;;;;;0.20;0.20;;;-1.30;99.90;;;;;;5029030;28;20213;-73
2021/01/25 05:14:35;;;;;;;0.32;0.32;;;-1.40;99.90;;;;;;5029796;28;20198;-73
2021/01/25 05:17:09;;;;;;;0.32;0.32;;;-1.40;99.90;;;;;;5029549;28;20162;-73
2021/01/25 05:19:37;;;;;;;0.20;0.20;;;-1.50;99.90;;;;;;5029458;28;20260;-72
2021/01/25 05:22:15;;;;;;;0.10;0.10;;;-1.50;99.90;;;;;;5027798;28;20201;-74
2021/01/25 05:24:51;;;;;;;0.80;0.80;;;-1.50;99.90;;;;;;5029387;28;20249;-73
2021/01/25 05:27:30;;;;;;;0.40;0.40;;;-1.50;99.90;;;;;;5027467;28;20205;-73
2021/01/25 05:30:08;;;;;;;0.13;0.13;;;-1.40;99.90;;;;;;5026841;28;20220;-72
2021/01/25 05:32:53;;;;;;;0.20;0.20;;;-1.40;99.90;;;;;;5028592;28;20177;-73
2021/01/25 05:35:23;;;;;;;0.10;0.10;;;-1.40;99.90;;;;;;5026800;28;20265;-73
2021/01/25 05:38:04;;;;;;;0.10;0.10;;;-1.40;99.90;;;;;;5029007;28;20186;-74
2021/01/25 05:40:32;;;;;;;0.20;0.20;;;-1.40;99.90;;;;;;5027419;28;20166;-74
2021/01/25 05:42:59;;;;;;;0.20;0.20;;;-1.50;99.90;;;;;;5028603;28;20229;-73
2021/01/25 05:45:29;;;;;;;0.10;0.10;;;-1.50;99.90;;;;;;5027355;28;20194;-74
2021/01/25 05:47:58;;;;;;;0.50;0.50;;;-1.50;99.90;;;;;;5028867;28;20159;-73
2021/01/25 05:50:34;;;;;;;0.40;0.40;;;-1.50;99.90;;;;;;5028545;28;20163;-72
2021/01/25 05:53:05;;;;;;;0.30;0.30;;;-1.70;99.90;;;;;;5028866;28;20169;-73
2021/01/25 05:55:32;;;;;;;0.17;0.17;;;-1.80;99.90;;;;;;5028610;28;20682;-73
2021/01/25 05:57:59;;;;;;;0.43;0.43;;;-1.80;99.90;;;;;;5028527;28;20163;-73
2021/01/25 06:00:26;;;;;;;0.10;0.10;;;-1.90;99.90;;;;;;5028587;28;20190;-73
2021/01/25 06:02:53;;;;;;;4.70;2.17;;;-1.90;99.90;;;;;;5027371;28;20197;-73
2021/01/25 06:05:26;;;;;;;0.15;0.15;;;-1.90;99.90;;;;;;5028381;28;20190;-72
2021/01/25 06:07:57;;;;;;;0.50;0.50;;;-1.80;99.90;;;;;;5026923;28;20190;-73
2021/01/25 06:10:29;;;;;;;0.68;0.68;;;-1.90;99.90;;;;;;5028395;28;20162;-73
2021/01/25 06:13:06;;;;;;;1.05;1.05;;;-1.80;99.90;;;;;;5026756;28;20257;-72
2021/01/25 06:15:36;;;;;;;0.57;0.57;;;-1.80;99.90;;;;;;5028320;28;20726;-72
2021/01/25 06:18:02;;;;;;;0.13;0.13;;;-1.70;99.90;;;;;;5028404;28;20217;-72
2021/01/25 06:20:31;;;;;;;0.13;0.13;;;-1.70;99.90;;;;;;5028096;28;20173;-73
2021/01/25 06:22:57;;;;;;;0.10;0.10;;;-1.70;99.90;;;;;;5028425;28;20497;-73
2021/01/25 06:25:25;;;;;;;0.10;0.10;;;-1.60;99.90;;;;;;5026453;28;20190;-73
2021/01/25 06:27:55;;;;;;;0.20;0.20;;;-1.60;99.90;;;;;;5026660;28;20178;-73
2021/01/25 06:30:24;;;;;;;0.20;0.20;;;-1.60;99.90;;;;;;5027976;28;20208;-74
2021/01/25 06:32:51;;;;;;;0.15;0.15;;;-1.60;99.90;;;;;;5026467;28;20260;-74
2021/01/25 06:35:18;;;;;;;0.20;0.20;;;-1.50;99.90;;;;;;5027905;28;20212;-74
2021/01/25 06:37:53;;;;;;;0.45;0.45;;;-1.50;99.90;;;;;;5026639;28;20185;-75
2021/01/25 06:40:24;;;;;;;1.38;1.38;;;-1.40;99.90;;;;;;5028007;28;20225;-74
2021/01/25 06:42:50;;;;;;;0.45;0.45;;;-1.50;99.90;;;;;;5027583;28;20214;-74
2021/01/25 06:45:16;;;;;;;0.20;0.20;;;-1.50;99.90;;;;;;5027951;28;20238;-73
2021/01/25 06:47:42;;;;;;;0.20;0.20;;;-1.50;99.90;;;;;;5027150;28;20173;-74
2021/01/25 06:50:08;;;;;;;0.20;0.20;;;-1.40;99.90;;;;;;5028172;28;20163;-74
2021/01/25 06:52:39;;;;;;;0.85;0.85;;;-1.50;99.90;;;;;;5028245;28;20158;-74
2021/01/25 06:55:07;;;;;;;0.20;0.20;;;-1.40;99.90;;;;;;5028019;28;20162;-75
2021/01/25 06:57:35;;;;;;;0.98;0.98;;;-1.40;99.90;;;;;;5027762;28;20178;-75
2021/01/25 07:00:08;;;;;;;0.20;0.20;;;-1.40;99.90;;;;;;5028101;28;20169;-74
2021/01/25 07:02:34;;;;;;;0.10;0.10;;;-1.40;99.90;;;;;;5027612;28;20208;-74
2021/01/25 07:05:00;;;;;;;0.10;0.10;;;-1.40;99.90;;;;;;5026715;28;20170;-74
2021/01/25 07:07:31;;;;;;;0.30;0.30;;;-1.30;99.90;;;;;;5026364;28;20226;-74
2021/01/25 07:09:58;;;;;;;0.17;0.17;;;-1.30;99.90;;;;;;5028057;28;20154;-72
2021/01/25 07:12:28;;;;;;;0.35;0.35;;;-1.30;99.90;;;;;;5027834;28;20288;-74
2021/01/25 07:14:54;;;;;;;0.52;0.52;;;-1.30;99.90;;;;;;5026275;28;20203;-73
2021/01/25 07:17:20;;;;;;;0.22;0.22;;;-1.30;99.90;;;;;;5027763;28;20205;-73
2021/01/25 07:19:47;;;;;;;1.90;1.85;;;-1.30;99.90;;;;;;5027588;28;20163;-73
2021/01/25 07:22:14;;;;;;;0.40;0.40;;;-1.20;99.90;;;;;;5027583;28;20209;-73
2021/01/25 07:24:39;;;;;;;0.10;0.10;;;-1.20;99.90;;;;;;5028821;28;20192;-74
2021/01/25 07:27:07;;;;;;;0.65;0.65;;;-1.20;99.90;;;;;;5031184;28;20225;-74
2021/01/25 07:29:33;;;;;;;0.20;0.20;;;-1.10;99.90;;;;;;5031627;28;20166;-73
2021/01/25 07:32:01;;;;;;;0.10;0.10;;;-1.00;99.90;;;;;;5031352;28;20162;-74
2021/01/25 07:34:31;;;;;;;0.10;0.10;;;-1.00;99.90;;;;;;5031421;28;20252;-73
2021/01/25 07:36:58;;;;;;;0.63;0.63;;;-1.00;99.90;;;;;;5029778;28;20201;-74
2021/01/25 07:39:24;;;;;;;0.17;0.17;;;-1.10;99.90;;;;;;5029854;28;20292;-73
2021/01/25 07:41:50;;;;;;;0.88;0.88;;;-1.20;99.90;;;;;;5031175;28;20190;-74
2021/01/25 07:44:16;;;;;;;0.10;0.10;;;-1.20;99.90;;;;;;5030791;28;20221;-74
2021/01/25 07:46:45;;;;;;;0.52;0.52;;;-1.20;99.90;;;;;;5031064;28;20198;-76
2021/01/25 07:49:12;;;;;;;0.13;0.13;;;-1.20;99.90;;;;;;5031118;28;20165;-73
2021/01/25 07:51:38;;;;;;;0.28;0.28;;;-1.10;99.90;;;;;;5029699;28;20316;-74
2021/01/25 07:54:05;;;;;;;0.43;0.43;;;-1.30;99.90;;;;;;5030861;28;20162;-74
2021/01/25 07:56:31;;;;;;;0.20;0.20;;;-1.10;99.90;;;;;;5030889;28;20257;-74
2021/01/25 07:59:09;;;;;;;0.50;0.50;;;-1.10;99.90;;;;;;5030864;28;20167;-74
2021/01/25 08:01:46;;;;;;;0.15;0.15;;;-0.90;99.90;;;;;;5030554;28;20257;-74
2021/01/25 08:04:15;;;;;;;0.20;0.20;;;-0.70;99.90;;;;;;5031015;28;20708;-74
2021/01/25 08:06:43;;;;;;;0.63;0.63;;;-0.90;99.90;;;;;;5030439;28;20185;-74
2021/01/25 08:09:11;;;;;;;1.30;1.17;;;-0.90;99.90;;;;;;5029281;28;20588;-73
2021/01/25 08:11:40;;;;;;;0.20;0.20;;;-1.10;99.90;;;;;;5029892;28;20174;-74
2021/01/25 08:14:31;;;;;;;0.20;0.20;;;-1.20;99.90;;;;;;5030368;28;20170;-75
2021/01/25 08:17:00;;;;;;;0.20;0.20;;;-1.00;99.90;;;;;;5030707;28;20564;-77
2021/01/25 08:19:48;;;;;;;0.20;0.20;;;-0.70;99.90;;;;;;5030656;28;20182;-74
2021/01/25 08:22:58;;;;;;;0.25;0.25;;;-0.30;99.90;;;;;;5029700;28;20229;-76
2021/01/25 08:25:28;;;;;;;1.08;0.80;;;-0.20;99.90;;;;;;5045119;28;20202;-77
2021/01/25 08:28:26;;;;;;;1.05;1.05;;;0.00;99.90;;;;;;5024644;28;20253;-78
2021/01/25 08:30:52;;;;;;;0.38;0.38;;;0.20;99.90;;;;;;5028901;28;20209;-79
2021/01/25 08:33:31;;;;;;;0.13;0.13;;;1.50;99.90;;;;;;5027897;28;20187;-78
2021/01/25 08:35:59;;;;;;;0.47;0.47;;;3.10;99.90;;;;;;5027576;28;20166;-75
2021/01/25 08:38:33;;;;;;;0.10;0.10;;;4.50;99.90;;;;;;5029101;28;20192;-76
2021/01/25 08:41:01;;;;;;;0.05;0.05;;;5.70;99.90;;;;;;5028342;28;20205;-75
2021/01/25 08:43:32;;;;;;;0.10;0.10;;;6.40;99.90;;;;;;5029514;28;20297;-75
2021/01/25 08:46:15;;;;;;;0.00;0.00;;;6.10;99.90;;;;;;5029452;28;20159;-76
2021/01/25 08:48:42;;;;;;;0.10;0.10;;;6.50;99.90;;;;;;5028946;28;20198;-75
2021/01/25 08:51:28;;;;;;;0.17;0.17;;;5.90;99.90;;;;;;5029474;28;20595;-75
2021/01/25 08:54:20;;;;;;;0.08;0.08;;;5.00;99.90;;;;;;5028518;28;20182;-74
2021/01/25 08:56:46;;;;;;;0.40;0.40;;;5.70;99.90;;;;;;5024195;28;20166;-74
2021/01/25 08:59:15;;;;;;;0.05;0.05;;;6.10;99.90;;;;;;5012635;28;20209;-75
2021/01/25 09:01:44;;;;;;;0.50;0.50;;;5.30;99.90;;;;;;5009611;28;20193;-74
2021/01/25 09:04:11;;;;;;;0.10;0.10;;;5.30;99.90;;;;;;5008340;28;20230;-74
2021/01/25 09:06:51;;;;;;;0.20;0.20;;;6.10;99.90;;;;;;5008403;28;20225;-74
2021/01/25 09:09:17;;;;;;;0.05;0.05;;;6.60;99.90;;;;;;5009787;28;20202;-75
2021/01/25 09:11:44;;;;;;;0.00;0.00;;;7.70;99.90;;;;;;5010040;28;20250;-75
2021/01/25 09:14:10;;;;;;;0.00;0.00;;;7.50;99.90;;;;;;5009991;28;20163;-75
2021/01/25 09:16:36;;;;;;;0.40;0.40;;;6.70;99.90;;;;;;5016273;28;20189;-75
2021/01/25 09:19:02;;;;;;;0.10;0.10;;;6.10;99.90;;;;;;5019303;28;20174;-76
2021/01/25 09:21:28;;;;;;;0.10;0.10;;;5.90;99.90;;;;;;5023171;28;20194;-76
2021/01/25 09:23:54;;;;;;;0.10;0.10;;;5.90;99.90;;;;;;5028443;28;20260;-76
2021/01/25 09:26:20;;;;;;;0.22;0.22;;;6.10;99.90;;;;;;5029893;28;20162;-74
2021/01/25 09:28:46;;;;;;;1.75;0.45;;;5.30;99.90;;;;;;5029990;28;20197;-76
2021/01/25 09:31:13;;;;;;;0.20;0.20;;;5.00;99.90;;;;;;5029103;28;20186;-75
2021/01/25 09:33:39;;;;;;;0.10;0.10;;;6.00;99.90;;;;;;5031232;28;20212;-75
2021/01/25 09:36:05;;;;;;;0.10;0.10;;;6.70;99.90;;;;;;5030478;28;20162;-75
2021/01/25 09:38:30;;;;;;;0.38;0.38;;;5.80;99.90;;;;;;5027697;28;20581;-75
2021/01/25 09:40:56;;;;;;;0.10;0.10;;;4.20;99.90;;;;;;5028433;28;20197;-75
2021/01/25 09:43:23;;;;;;;0.10;0.10;;;4.10;99.90;;;;;;5028475;28;20221;-74
2021/01/25 09:45:50;;;;;;;0.10;0.10;;;4.00;99.90;;;;;;5027688;28;20585;-75
2021/01/25 09:48:16;;;;;;;0.05;0.05;;;4.00;99.90;;;;;;5026498;28;20194;-73
2021/01/25 09:50:43;;;;;;;0.10;0.10;;;4.10;99.90;;;;;;5027240;28;20295;-73
2021/01/25 09:53:09;;;;;;;3.60;2.65;;;4.10;99.90;;;;;;5036584;28;20177;-73
2021/01/25 09:55:34;;;;;;;0.10;0.10;;;3.80;99.90;;;;;;5027167;28;20190;-74
2021/01/25 09:58:02;;;;;;;0.10;0.10;;;3.60;99.90;;;;;;5027236;28;20204;-73
2021/01/25 10:00:28;;;;;;;0.15;0.15;;;3.60;99.90;;;;;;5028147;28;20226;-73
2021/01/25 10:02:54;;;;;;;0.10;0.10;;;3.90;99.90;;;;;;5028507;28;20198;-73
2021/01/25 10:05:20;;;;;;;0.10;0.10;;;4.20;99.90;;;;;;5028530;28;20169;-74
2021/01/25 10:07:46;;;;;;;1.05;0.73;;;5.10;99.90;;;;;;5027686;28;20213;-69
2021/01/25 10:10:14;;;;;;;0.10;0.10;;;5.10;99.90;;;;;;5028453;28;20170;-68
2021/01/25 10:12:40;;;;;;;0.38;0.38;;;4.20;99.90;;;;;;5027227;28;20197;-68
2021/01/25 10:15:08;;;;;;;0.10;0.10;;;3.60;99.90;;;;;;5027326;28;20592;-69
2021/01/25 10:17:34;;;;;;;0.10;0.10;;;3.60;99.90;;;;;;5028531;28;20193;-70
2021/01/25 10:20:01;;;;;;;0.10;0.10;;;4.40;99.90;;;;;;5028297;28;20165;-70
2021/01/25 10:22:26;;;;;;;0.10;0.10;;;5.70;99.90;;;;;;5028252;28;20190;-70
2021/01/25 10:24:52;;;;;;;0.10;0.10;;;5.60;99.90;;;;;;5028281;28;20301;-69
2021/01/25 10:27:18;;;;;;;0.00;0.00;;;5.70;99.90;;;;;;5028149;28;20205;-69
2021/01/25 10:29:44;;;;;;;0.10;0.10;;;5.60;99.90;;;;;;5027989;28;20169;-70
2021/01/25 10:32:10;;;;;;;0.10;0.10;;;6.60;99.90;;;;;;5028390;28;20161;-70
2021/01/25 10:34:36;;;;;;;0.40;0.40;;;7.70;99.90;;;;;;5028167;28;20177;-68
2021/01/25 10:37:02;;;;;;;0.55;0.55;;;8.30;99.90;;;;;;5028165;28;20198;-69
2021/01/25 10:39:28;;;;;;;0.25;0.25;;;8.70;99.90;;;;;;5028224;28;20162;-69
2021/01/25 10:41:54;;;;;;;1.40;0.98;;;8.60;99.90;;;;;;5042846;28;20285;-69
2021/01/25 10:44:19;;;;;;;0.28;0.28;;;7.30;99.90;;;;;;5028161;28;20300;-69
2021/01/25 10:46:45;;;;;;;0.38;0.38;;;7.60;99.90;;;;;;5027971;28;20162;-69
2021/01/25 10:49:11;;;;;;;0.63;0.63;;;8.50;99.90;;;;;;5027697;28;20150;-69
2021/01/25 10:51:37;;;;;;;0.10;0.10;;;9.50;99.90;;;;;;5026828;28;20180;-70
2021/01/25 10:54:03;;;;;;;0.15;0.15;;;9.70;99.90;;;;;;5023393;28;20186;-70
2021/01/25 10:56:29;;;;;;;0.10;0.10;;;9.60;99.90;;;;;;5008232;28;20183;-69
2021/01/25 10:58:55;;;;;;;0.20;0.20;;;10.40;99.90;;;;;;5011605;28;20166;-70
2021/01/25 11:01:21;;;;;;;0.85;0.85;;;9.60;99.90;;;;;;5012580;28;20202;-70
2021/01/25 11:03:47;;;;;;;0.03;0.03;;;10.60;99.90;;;;;;5029443;28;20168;-69
2021/01/25 11:06:14;;;;;;;0.10;0.10;;;10.90;99.90;;;;;;5029984;28;20162;-71
2021/01/25 11:08:41;;;;;;;0.05;0.05;;;11.50;99.90;;;;;;5031295;28;20197;-70
2021/01/25 11:11:06;;;;;;;3.63;0.68;;;12.70;99.90;;;;;;5031897;28;20619;-70
2021/01/25 11:13:33;;;;;;;5.57;1.10;;;13.10;99.90;;;;;;5030674;28;20170;-70
2021/01/25 11:15:59;;;;;;;3.00;0.70;;;13.60;99.90;;;;;;5030639;28;20238;-70
2021/01/25 11:18:25;;;;;;;0.00;0.00;;;13.60;99.90;;;;;;5031858;28;20197;-69
2021/01/25 11:20:51;;;;;;;0.20;0.20;;;12.10;99.90;;;;;;5031080;28;20279;-70
2021/01/25 11:23:17;;;;;;;0.10;0.10;;;10.40;99.90;;;;;;5029398;28;20166;-70
2021/01/25 11:25:43;;;;;;;0.10;0.10;;;10.00;99.90;;;;;;5030775;28;20197;-70
2021/01/25 11:28:09;;;;;;;0.65;0.65;;;10.80;99.90;;;;;;5045921;28;20289;-70
2021/01/25 11:30:34;;;;;;;0.20;0.20;;;11.50;99.90;;;;;;5030710;28;20162;-70
2021/01/25 11:33:00;;;;;;;0.43;0.43;;;11.10;99.90;;;;;;5031387;28;20193;-70
2021/01/25 11:35:26;;;;;;;0.10;0.10;;;11.40;99.90;;;;;;5031349;28;20276;-70
2021/01/25 11:37:52;;;;;;;1.02;0.28;;;10.20;99.90;;;;;;5031444;28;20193;-69
2021/01/25 11:40:18;;;;;;;0.65;0.20;;;10.00;99.90;;;;;;5010137;28;20179;-70
2021/01/25 11:42:44;;;;;;;3.40;2.05;;;9.40;99.90;;;;;;5009914;28;20221;-68
2021/01/25 11:45:11;;;;;;;0.15;0.10;;;10.20;99.90;;;;;;5010934;28;20243;-69
2021/01/25 11:47:37;;;;;;;0.20;0.20;;;10.20;99.90;;;;;;5010866;28;20297;-69
2021/01/25 11:50:13;;;;;;;0.00;0.00;;;10.00;99.90;;;;;;5009908;28;20174;-69
2021/01/25 11:52:39;;;;;;;0.20;0.20;;;8.70;99.90;;;;;;5026225;28;20186;-69
2021/01/25 11:55:06;;;;;;;0.20;0.20;;;8.40;99.90;;;;;;5032061;28;20190;-69
2021/01/25 11:57:32;;;;;;;0.00;0.00;;;7.90;99.90;;;;;;5029578;28;20208;-69
2021/01/25 11:59:58;;;;;;;0.10;0.10;;;8.10;99.90;;;;;;5045980;28;20234;-69
2021/01/25 12:02:24;;;;;;;0.10;0.10;;;7.60;99.90;;;;;;5030433;28;20278;-69
2021/01/25 12:04:51;;;;;;;0.43;0.43;;;6.70;99.90;;;;;;5029821;28;20178;-69
2021/01/25 12:07:18;;;;;;;0.10;0.10;;;6.40;99.90;;;;;;5028981;28;20202;-69
2021/01/25 12:09:44;;;;;;;0.20;0.20;;;6.10;99.90;;;;;;5028593;28;20162;-69
2021/01/25 12:12:10;;;;;;;0.10;0.10;;;5.90;99.90;;;;;;5030362;28;20166;-69
2021/01/25 12:14:36;;;;;;;0.10;0.10;;;6.40;99.90;;;;;;5030537;28;20169;-70
2021/01/25 12:17:02;;;;;;;0.00;0.00;;;6.20;99.90;;;;;;5030230;28;20193;-69
2021/01/25 12:19:28;;;;;;;0.20;0.20;;;6.10;99.90;;;;;;5045632;28;20269;-69
2021/01/25 12:21:54;;;;;;;0.10;0.10;;;6.50;99.90;;;;;;5028325;28;20220;-69
2021/01/25 12:24:20;;;;;;;2.45;2.05;;;6.80;99.90;;;;;;5028485;28;20219;-69
2021/01/25 12:26:46;;;;;;;0.10;0.10;;;6.90;99.90;;;;;;5029989;28;20151;-69
2021/01/25 12:29:12;;;;;;;0.57;0.32;;;7.00;99.90;;;;;;5045250;28;20615;-69
2021/01/25 12:31:38;;;;;;;0.00;0.00;;;7.10;99.90;;;;;;5029968;28;20689;-69
2021/01/25 12:34:04;;;;;;;0.20;0.20;;;7.90;99.90;;;;;;5030405;28;20158;-69
2021/01/25 12:36:30;;;;;;;0.10;0.10;;;7.60;99.90;;;;;;5045122;28;20181;-69
2021/01/25 12:38:59;;;;;;;0.10;0.10;;;7.80;99.90;;;;;;5030096;28;20226;-70
2021/01/25 12:41:25;;;;;;;0.10;0.10;;;7.70;99.90;;;;;;5029943;28;20200;-69
2021/01/25 12:43:51;;;;;;;0.20;0.20;;;7.90;99.90;;;;;;5044911;28;20288;-69
2021/01/25 12:46:17;;;;;;;0.00;0.00;;;7.90;99.90;;;;;;5029628;28;20174;-70
2021/01/25 12:48:43;;;;;;;0.10;0.10;;;7.50;99.90;;;;;;5029659;28;20189;-69
2021/01/25 12:51:09;;;;;;;0.13;0.13;;;7.50;99.90;;;;;;5029806;28;20158;-69
2021/01/25 12:53:35;;;;;;;1.75;1.20;;;7.70;99.90;;;;;;5029759;28;20189;-69